Time;durP1;ratioP1;P1;durP2;ratioP2;P2;SDS_P1;SDS_P2;PMS_P1;PMS_P2;Temp;Humidity;BMP_temperature;BMP_pressure;BME280_temperature;BME280_humidity;BME280_pressure;Samples;Min_cycle;Max_cycle;Signal;HPM_P1;HPM_P2
2021/03/11 00:02:22;;;;;;;32.03;24.20;;;7.60;90.30;;;;;;5053566;28;20029;-81
2021/03/11 00:04:48;;;;;;;28.70;23.73;;;7.70;90.20;;;;;;5053193;28;20048;-81
2021/03/11 00:07:15;;;;;;;27.87;21.90;;;7.70;90.10;;;;;;5053306;28;20025;-81
2021/03/11 00:09:40;;;;;;;30.70;21.97;;;7.80;90.00;;;;;;5057188;28;20078;-80
2021/03/11 00:12:07;;;;;;;29.37;21.87;;;7.80;90.10;;;;;;5056880;28;20032;-81
2021/03/11 00:14:33;;;;;;;30.40;22.10;;;7.80;90.20;;;;;;5057058;28;20104;-81
2021/03/11 00:16:59;;;;;;;30.97;21.77;;;7.80;90.10;;;;;;5057058;28;20092;-81
2021/03/11 00:19:25;;;;;;;27.40;22.93;;;7.90;90.10;;;;;;5056755;28;20036;-81
2021/03/11 00:21:50;;;;;;;27.07;22.20;;;7.90;90.10;;;;;;5056952;28;20036;-81
2021/03/11 00:24:16;;;;;;;30.40;22.80;;;7.90;90.10;;;;;;5056756;28;20474;-80
2021/03/11 00:26:42;;;;;;;30.48;23.33;;;7.90;90.10;;;;;;5057136;28;20103;-80
2021/03/11 00:29:07;;;;;;;27.20;22.42;;;7.90;90.10;;;;;;5056720;28;20040;-79
2021/03/11 00:31:33;;;;;;;27.08;23.17;;;8.00;90.10;;;;;;5057114;28;20065;-80
2021/03/11 00:33:58;;;;;;;28.70;22.43;;;8.00;90.10;;;;;;5056402;28;20040;-80
2021/03/11 00:36:24;;;;;;;30.73;23.80;;;8.00;90.10;;;;;;5056688;28;20380;-80
2021/03/11 00:38:49;;;;;;;30.20;23.52;;;8.10;90.10;;;;;;5055137;28;20065;-81
2021/03/11 00:41:15;;;;;;;30.63;23.67;;;8.10;90.20;;;;;;5056418;28;20029;-80
2021/03/11 00:43:41;;;;;;;33.00;24.00;;;8.10;90.20;;;;;;5056575;28;20033;-81
2021/03/11 00:46:06;;;;;;;32.10;24.27;;;8.10;90.40;;;;;;5056492;28;20028;-80
2021/03/11 00:48:32;;;;;;;31.27;23.45;;;8.10;90.70;;;;;;5055161;28;20463;-81
2021/03/11 00:50:57;;;;;;;31.87;25.87;;;8.20;90.70;;;;;;5056547;28;20041;-80
2021/03/11 00:53:23;;;;;;;35.80;26.80;;;8.20;90.90;;;;;;5058353;28;20029;-81
2021/03/11 00:55:48;;;;;;;36.28;27.70;;;8.20;90.90;;;;;;5056091;28;20160;-80
2021/03/11 00:58:14;;;;;;;35.13;27.50;;;8.10;91.10;;;;;;5056006;28;20538;-80
2021/03/11 01:00:39;;;;;;;39.45;27.67;;;8.10;91.30;;;;;;5056591;28;20037;-80
2021/03/11 01:03:05;;;;;;;34.60;25.08;;;8.20;91.30;;;;;;5055871;28;20036;-80
2021/03/11 01:05:31;;;;;;;37.93;28.53;;;8.10;91.50;;;;;;5055801;28;20036;-80
2021/03/11 01:07:57;;;;;;;39.78;28.55;;;8.10;91.70;;;;;;5054624;28;20083;-79
2021/03/11 01:10:23;;;;;;;38.07;27.70;;;8.20;91.70;;;;;;5056385;28;20546;-80
2021/03/11 01:12:48;;;;;;;26.93;19.13;;;8.20;91.60;;;;;;5056401;28;20131;-80
2021/03/11 01:15:14;;;;;;;35.87;25.70;;;8.20;91.50;;;;;;5055665;28;20036;-80
2021/03/11 01:17:40;;;;;;;34.50;26.63;;;8.30;91.30;;;;;;5055531;28;20486;-80
2021/03/11 01:20:17;;;;;;;34.63;26.27;;;8.30;91.30;;;;;;5054947;28;20032;-80
2021/03/11 01:22:42;;;;;;;30.73;22.02;;;8.40;91.20;;;;;;5055965;28;20057;-81
2021/03/11 01:25:08;;;;;;;31.80;25.00;;;8.40;90.90;;;;;;5055549;28;20075;-81
2021/03/11 01:27:34;;;;;;;32.38;23.17;;;8.50;90.80;;;;;;5056192;28;20025;-80
2021/03/11 01:30:00;;;;;;;31.75;23.77;;;8.50;90.80;;;;;;5055844;28;20462;-81
2021/03/11 01:32:25;;;;;;;27.73;21.67;;;8.50;90.70;;;;;;5054971;28;20159;-80
2021/03/11 01:34:51;;;;;;;34.50;24.25;;;8.60;90.60;;;;;;5055645;28;20071;-80
2021/03/11 01:37:16;;;;;;;33.63;24.77;;;8.60;90.80;;;;;;5071553;28;20037;-80
2021/03/11 01:39:42;;;;;;;34.35;24.73;;;8.60;90.80;;;;;;5055490;28;20040;-80
2021/03/11 01:42:08;;;;;;;33.40;22.52;;;8.60;90.80;;;;;;5055435;28;20079;-80
2021/03/11 01:44:33;;;;;;;32.15;24.17;;;8.60;91.10;;;;;;5055373;28;20428;-80
2021/03/11 01:46:59;;;;;;;37.08;27.38;;;8.60;91.20;;;;;;5054447;28;20040;-81
2021/03/11 01:49:24;;;;;;;32.70;25.75;;;8.60;91.30;;;;;;5055165;28;20493;-80
2021/03/11 01:51:50;;;;;;;30.15;20.40;;;8.50;91.40;;;;;;5054901;28;20075;-80
2021/03/11 01:54:16;;;;;;;31.90;22.17;;;8.50;91.50;;;;;;5037414;28;20086;-80
2021/03/11 01:56:42;;;;;;;35.80;27.50;;;8.50;91.60;;;;;;5053978;28;20044;-80
2021/03/11 01:59:07;;;;;;;34.95;27.77;;;8.50;91.70;;;;;;5053941;28;20025;-80
2021/03/11 02:01:33;;;;;;;31.65;24.35;;;8.60;91.50;;;;;;5055353;28;20032;-80
2021/03/11 02:03:59;;;;;;;36.47;25.58;;;8.60;91.50;;;;;;5053577;28;20028;-80
2021/03/11 02:06:24;;;;;;;35.95;26.75;;;8.60;91.40;;;;;;5055333;28;20028;-81
2021/03/11 02:08:50;;;;;;;31.00;21.60;;;8.60;91.40;;;;;;5054671;28;20033;-80
2021/03/11 02:11:17;;;;;;;33.55;21.73;;;8.70;91.20;;;;;;5054188;28;20486;-80
2021/03/11 02:13:47;;;;;;;33.08;24.98;;;8.70;91.10;;;;;;5053691;28;20104;-80
2021/03/11 02:16:30;;;;;;;26.67;21.05;;;8.80;91.20;;;;;;5054839;28;20021;-80
2021/03/11 02:19:12;;;;;;;24.65;18.92;;;8.80;91.00;;;;;;5054336;28;20029;-80
2021/03/11 02:21:47;;;;;;;32.15;22.92;;;8.80;91.00;;;;;;5053754;28;20444;-80
2021/03/11 02:24:36;;;;;;;29.23;21.80;;;8.90;90.80;;;;;;5036852;28;20036;-80
2021/03/11 02:27:23;;;;;;;31.00;21.05;;;8.90;90.90;;;;;;5053455;28;20079;-80
2021/03/11 02:29:48;;;;;;;25.13;16.63;;;8.90;90.80;;;;;;5054559;28;20036;-81
2021/03/11 02:32:14;;;;;;;26.42;19.77;;;9.00;90.60;;;;;;5052985;28;20033;-81
2021/03/11 02:34:51;;;;;;;23.73;19.65;;;9.00;90.50;;;;;;5037076;28;20036;-80
2021/03/11 02:37:43;;;;;;;25.05;18.40;;;9.00;90.50;;;;;;5053393;28;20017;-80
2021/03/11 02:40:11;;;;;;;20.65;15.63;;;9.20;90.20;;;;;;5036478;28;20027;-80
2021/03/11 02:42:38;;;;;;;22.48;17.48;;;9.20;90.10;;;;;;5036908;28;20058;-81
2021/03/11 02:45:06;;;;;;;21.83;17.15;;;9.20;90.10;;;;;;5036559;28;20025;-80
2021/03/11 02:47:32;;;;;;;19.75;15.45;;;9.30;90.10;;;;;;5054580;28;20366;-80
2021/03/11 02:49:58;;;;;;;19.25;17.17;;;9.20;90.20;;;;;;5036046;28;20049;-80
2021/03/11 02:52:24;;;;;;;16.52;12.77;;;9.30;90.20;;;;;;5052860;28;20107;-80
2021/03/11 02:54:49;;;;;;;16.63;12.63;;;9.20;90.20;;;;;;5036122;28;20104;-79
2021/03/11 02:57:16;;;;;;;20.10;15.02;;;9.20;90.20;;;;;;5053791;28;20442;-81
2021/03/11 02:59:42;;;;;;;16.02;13.13;;;9.20;90.30;;;;;;5052548;28;20462;-80
2021/03/11 03:02:07;;;;;;;19.40;15.20;;;9.20;90.20;;;;;;5052803;28;20108;-80
2021/03/11 03:04:33;;;;;;;18.50;14.30;;;9.30;90.20;;;;;;5052488;28;20029;-81
2021/03/11 03:06:59;;;;;;;17.80;15.18;;;9.30;90.10;;;;;;5052674;28;20032;-80
2021/03/11 03:09:24;;;;;;;18.42;12.30;;;9.40;90.00;;;;;;5052597;28;20430;-81
2021/03/11 03:11:50;;;;;;;16.55;13.52;;;9.40;89.90;;;;;;5052326;28;20036;-81
2021/03/11 03:14:16;;;;;;;18.27;13.57;;;9.40;90.00;;;;;;5036091;28;20029;-80
2021/03/11 03:16:41;;;;;;;21.50;15.05;;;9.40;90.20;;;;;;5036240;28;20056;-80
2021/03/11 03:19:07;;;;;;;17.77;14.15;;;9.40;90.50;;;;;;5035911;28;20032;-80
2021/03/11 03:21:32;;;;;;;19.23;14.02;;;9.40;90.60;;;;;;5053141;28;20025;-80
2021/03/11 03:23:58;;;;;;;17.77;12.77;;;9.40;90.40;;;;;;5052264;28;20029;-81
2021/03/11 03:26:24;;;;;;;18.38;14.80;;;9.50;90.10;;;;;;5052490;28;20021;-81
2021/03/11 03:28:49;;;;;;;18.13;11.85;;;9.50;90.00;;;;;;5053550;28;20086;-82
2021/03/11 03:31:15;;;;;;;17.05;14.15;;;9.60;89.80;;;;;;5069282;28;20037;-82
2021/03/11 03:33:41;;;;;;;18.38;13.48;;;9.70;89.60;;;;;;5068979;28;20083;-83
2021/03/11 03:36:06;;;;;;;16.67;12.95;;;9.70;89.30;;;;;;5053261;28;20040;-82
2021/03/11 03:38:33;;;;;;;15.95;13.48;;;9.70;89.00;;;;;;5053625;28;20033;-82
2021/03/11 03:40:59;;;;;;;16.10;12.00;;;9.80;88.80;;;;;;5053280;28;20029;-81
2021/03/11 03:43:26;;;;;;;13.38;11.18;;;9.80;88.60;;;;;;5054186;28;20025;-81
2021/03/11 03:45:56;;;;;;;16.27;12.02;;;9.80;88.40;;;;;;5039988;28;20025;-81
2021/03/11 03:48:42;;;;;;;15.43;10.68;;;9.80;88.40;;;;;;5057263;28;20067;-81
2021/03/11 03:51:08;;;;;;;16.48;12.57;;;9.90;88.10;;;;;;5055943;28;20558;-81
2021/03/11 03:53:50;;;;;;;14.07;10.20;;;9.90;88.10;;;;;;5056345;28;20108;-82
2021/03/11 03:56:24;;;;;;;14.63;11.05;;;10.00;88.10;;;;;;5040740;28;20017;-82
2021/03/11 03:58:50;;;;;;;12.85;10.68;;;10.00;88.10;;;;;;5040863;28;20078;-82
2021/03/11 04:01:15;;;;;;;14.13;10.75;;;10.00;88.10;;;;;;5039671;28;20033;-82
2021/03/11 04:03:41;;;;;;;13.57;10.07;;;10.00;88.20;;;;;;5039551;28;20022;-83
2021/03/11 04:06:08;;;;;;;13.05;8.00;;;10.00;88.20;;;;;;5056101;28;20037;-82
2021/03/11 04:08:34;;;;;;;11.10;9.18;;;10.10;87.90;;;;;;5039706;28;20371;-83
2021/03/11 04:10:59;;;;;;;12.77;8.65;;;10.10;87.80;;;;;;5056284;28;20050;-82
2021/03/11 04:13:25;;;;;;;12.20;9.70;;;10.20;87.60;;;;;;5039350;28;20021;-82
2021/03/11 04:15:51;;;;;;;13.50;10.18;;;10.20;87.50;;;;;;5056736;28;20060;-80
2021/03/11 04:18:17;;;;;;;11.23;9.27;;;10.20;87.70;;;;;;5059197;28;20029;-81
2021/03/11 04:20:42;;;;;;;12.10;10.23;;;10.20;87.60;;;;;;5039056;28;20110;-83
2021/03/11 04:23:08;;;;;;;10.55;9.00;;;10.20;87.90;;;;;;5039362;28;20029;-83
2021/03/11 04:25:33;;;;;;;10.27;7.85;;;10.20;87.40;;;;;;5039223;28;20033;-84
2021/03/11 04:27:59;;;;;;;15.95;9.52;;;10.30;87.20;;;;;;5055385;28;20391;-83
2021/03/11 04:30:25;;;;;;;9.38;6.68;;;10.40;86.90;;;;;;5038791;28;20027;-83
2021/03/11 04:32:50;;;;;;;10.88;8.93;;;10.40;86.50;;;;;;5056864;28;20108;-84
2021/03/11 04:35:16;;;;;;;13.25;8.25;;;10.50;86.40;;;;;;5055687;28;20385;-83
2021/03/11 04:37:41;;;;;;;9.45;6.72;;;10.50;86.00;;;;;;5058736;28;20409;-82
2021/03/11 04:40:07;;;;;;;10.82;6.95;;;10.60;85.50;;;;;;5057163;28;20048;-83
2021/03/11 04:42:35;;;;;;;8.57;6.15;;;10.60;85.50;;;;;;5039209;28;20361;-82
2021/03/11 04:45:01;;;;;;;13.23;7.63;;;10.70;85.40;;;;;;5038728;28;20091;-83
2021/03/11 04:47:27;;;;;;;9.88;6.75;;;10.80;85.30;;;;;;5038892;28;20104;-83
2021/03/11 04:49:52;;;;;;;9.23;5.40;;;10.70;85.20;;;;;;5056442;28;20521;-83
2021/03/11 04:52:18;;;;;;;8.48;6.10;;;10.70;85.20;;;;;;5055273;28;20459;-82
2021/03/11 04:54:44;;;;;;;8.25;6.55;;;10.80;85.20;;;;;;5038187;28;20100;-82
2021/03/11 04:57:09;;;;;;;9.60;7.32;;;10.80;85.10;;;;;;5055288;28;20102;-82
2021/03/11 04:59:36;;;;;;;9.38;6.95;;;10.80;85.10;;;;;;5072034;28;20029;-82
2021/03/11 05:02:04;;;;;;;10.30;6.75;;;10.90;85.00;;;;;;5056908;28;20066;-81
2021/03/11 05:04:30;;;;;;;9.48;7.15;;;10.90;85.10;;;;;;5056362;28;20100;-81
2021/03/11 05:06:56;;;;;;;12.68;6.63;;;10.90;85.60;;;;;;5054968;28;20064;-81
2021/03/11 05:09:21;;;;;;;13.80;7.60;;;10.70;87.00;;;;;;5056120;28;20378;-81
2021/03/11 05:11:47;;;;;;;9.68;7.47;;;10.70;87.90;;;;;;5056062;28;20059;-80
2021/03/11 05:14:13;;;;;;;13.80;7.20;;;10.60;88.60;;;;;;5055229;28;20060;-79
2021/03/11 05:16:38;;;;;;;16.13;6.60;;;10.50;89.00;;;;;;5055975;28;20095;-81
2021/03/11 05:19:04;;;;;;;15.88;7.25;;;10.60;88.40;;;;;;5055810;28;20061;-81
2021/03/11 05:21:30;;;;;;;9.27;6.03;;;10.60;88.40;;;;;;5056004;28;20029;-83
2021/03/11 05:23:55;;;;;;;10.68;6.25;;;10.60;88.10;;;;;;5054961;28;20150;-83
2021/03/11 05:26:21;;;;;;;11.80;7.20;;;10.60;87.90;;;;;;5054363;28;20044;-83
2021/03/11 05:28:46;;;;;;;11.60;5.38;;;10.70;87.70;;;;;;5055652;28;20033;-83
2021/03/11 05:31:12;;;;;;;8.77;5.97;;;10.70;87.70;;;;;;5055947;28;20029;-83
2021/03/11 05:33:37;;;;;;;8.55;6.72;;;10.70;86.90;;;;;;5056000;28;20060;-83
2021/03/11 05:36:04;;;;;;;8.25;5.55;;;10.70;87.00;;;;;;5055422;28;20025;-82
2021/03/11 05:38:35;;;;;;;7.38;5.03;;;10.80;86.60;;;;;;5054661;28;20025;-83
2021/03/11 05:41:01;;;;;;;8.57;4.80;;;10.80;86.00;;;;;;5055771;28;20036;-82
2021/03/11 05:43:26;;;;;;;7.00;4.82;;;10.90;84.80;;;;;;5037814;28;20070;-83
2021/03/11 05:45:52;;;;;;;8.63;4.75;;;10.90;84.30;;;;;;5053797;28;20043;-83
2021/03/11 05:48:18;;;;;;;5.57;3.63;;;10.90;84.10;;;;;;5054228;28;20467;-83
2021/03/11 05:50:43;;;;;;;5.43;3.53;;;10.90;84.50;;;;;;5037203;28;20044;-83
2021/03/11 05:53:11;;;;;;;5.85;3.33;;;10.90;84.30;;;;;;5055163;28;20058;-83
2021/03/11 05:55:37;;;;;;;5.18;2.60;;;10.90;83.80;;;;;;5037746;28;20029;-84
2021/03/11 05:58:03;;;;;;;3.35;2.30;;;10.90;83.10;;;;;;5060887;28;20029;-84
2021/03/11 06:00:28;;;;;;;8.38;2.72;;;11.00;82.70;;;;;;5066835;28;20021;-86
2021/03/11 06:02:59;;;;;;;6.22;2.45;;;10.90;83.70;;;;;;5055231;28;20033;-87
2021/03/11 06:05:24;;;;;;;3.53;1.70;;;10.90;83.30;;;;;;5054365;28;20075;-86
2021/03/11 06:07:50;;;;;;;10.20;2.75;;;10.90;83.60;;;;;;5037506;28;20021;-86
2021/03/11 06:10:17;;;;;;;3.50;1.67;;;11.00;82.60;;;;;;5053741;28;20075;-87
2021/03/11 06:12:43;;;;;;;3.58;1.73;;;11.00;82.20;;;;;;5055464;28;20029;-87
2021/03/11 06:15:36;;;;;;;9.52;2.30;;;11.00;82.30;;;;;;5053794;28;20025;-87
2021/03/11 06:18:08;;;;;;;8.10;2.28;;;11.00;82.50;;;;;;5054568;28;20021;-87
2021/03/11 06:20:34;;;;;;;3.60;1.90;;;11.00;82.60;;;;;;5038000;28;20025;-88
2021/03/11 06:23:00;;;;;;;4.70;1.90;;;11.00;82.70;;;;;;5056369;28;20066;-88
2021/03/11 06:25:26;;;;;;;6.80;2.95;;;11.10;82.80;;;;;;5054507;28;20483;-87
2021/03/11 06:27:52;;;;;;;11.05;2.38;;;11.10;83.20;;;;;;5053735;28;20075;-87
2021/03/11 06:30:34;;;;;;;6.75;2.50;;;11.00;83.00;;;;;;5054762;28;20060;-87
2021/03/11 06:33:00;;;;;;;8.85;2.45;;;11.00;83.30;;;;;;5054545;28;20032;-87
2021/03/11 06:35:26;;;;;;;7.85;2.60;;;11.00;83.00;;;;;;5054588;28;20029;-86
2021/03/11 06:37:52;;;;;;;10.40;3.20;;;11.00;83.00;;;;;;5054339;28;20025;-86
2021/03/11 06:40:19;;;;;;;8.18;3.17;;;11.00;82.30;;;;;;5054545;28;20032;-87
2021/03/11 06:42:45;;;;;;;8.98;2.78;;;11.00;82.70;;;;;;5054743;28;20036;-87
2021/03/11 06:45:19;;;;;;;10.77;3.17;;;11.00;82.70;;;;;;5054448;28;20048;-87
2021/03/11 06:47:45;;;;;;;11.98;3.60;;;11.00;82.60;;;;;;5054531;28;20021;-87
2021/03/11 06:50:11;;;;;;;10.07;2.60;;;11.00;83.10;;;;;;5052770;28;20409;-87
2021/03/11 06:52:36;;;;;;;12.68;3.20;;;10.90;83.00;;;;;;5054365;28;20033;-88
2021/03/11 06:55:05;;;;;;;18.85;3.35;;;10.90;83.00;;;;;;5052958;28;20025;-86
2021/03/11 06:57:34;;;;;;;7.10;2.05;;;10.90;82.80;;;;;;5051830;28;20029;-85
2021/03/11 07:00:01;;;;;;;15.70;2.88;;;10.90;82.70;;;;;;5049427;28;20074;-86
2021/03/11 07:02:27;;;;;;;8.88;2.42;;;11.00;82.50;;;;;;5032937;28;20044;-84
2021/03/11 07:04:54;;;;;;;11.52;3.05;;;11.10;82.10;;;;;;5046566;28;20029;-84
2021/03/11 07:07:21;;;;;;;12.73;2.47;;;11.10;81.30;;;;;;5034567;28;20055;-84
2021/03/11 07:09:47;;;;;;;11.05;2.47;;;11.20;80.60;;;;;;5054278;28;20078;-90
2021/03/11 07:12:13;;;;;;;8.98;2.22;;;11.30;78.70;;;;;;5052530;28;20070;-90
2021/03/11 07:14:39;;;;;;;9.20;2.15;;;11.30;79.40;;;;;;5052280;28;20378;-88
2021/03/11 07:17:24;;;;;;;15.55;2.75;;;11.40;78.80;;;;;;5052909;28;20519;-89
2021/03/11 07:20:09;;;;;;;20.83;3.50;;;11.40;78.00;;;;;;5054557;28;20035;-88
2021/03/11 07:22:35;;;;;;;19.38;3.10;;;11.50;76.80;;;;;;5053479;28;20021;-83
2021/03/11 07:25:00;;;;;;;14.48;2.97;;;11.50;77.10;;;;;;5053329;28;20032;-83
2021/03/11 07:27:38;;;;;;;16.17;3.55;;;11.50;76.00;;;;;;5052523;28;20037;-86
2021/03/11 07:30:04;;;;;;;19.70;3.85;;;11.60;74.70;;;;;;5069683;28;20029;-86
2021/03/11 07:32:34;;;;;;;21.60;4.10;;;11.70;74.10;;;;;;5054931;28;20547;-87
2021/03/11 07:35:03;;;;;;;18.58;3.38;;;11.80;72.20;;;;;;5035530;28;20064;-87
2021/03/11 07:37:29;;;;;;;30.58;4.97;;;11.90;70.50;;;;;;5054626;28;20036;-90
2021/03/11 07:39:57;;;;;;;32.00;5.68;;;12.00;68.00;;;;;;5059794;28;20397;-78
2021/03/11 07:42:23;;;;;;;29.02;5.75;;;12.00;67.80;;;;;;5056413;28;20029;-78
2021/03/11 07:44:49;;;;;;;24.73;5.40;;;11.90;68.20;;;;;;5052264;28;20024;-78
2021/03/11 07:47:14;;;;;;;32.38;5.30;;;12.00;67.50;;;;;;5035605;28;20076;-78
2021/03/11 07:49:42;;;;;;;30.85;5.30;;;12.00;66.90;;;;;;5051632;28;20053;-79
2021/03/11 07:52:07;;;;;;;25.85;5.63;;;12.00;66.80;;;;;;5034745;28;20021;-80
2021/03/11 07:54:33;;;;;;;28.83;6.90;;;12.00;66.50;;;;;;5052146;28;20377;-80
2021/03/11 07:56:59;;;;;;;56.13;8.90;;;12.00;66.90;;;;;;5051699;28;20017;-80
2021/03/11 07:59:24;;;;;;;34.35;7.03;;;12.00;67.30;;;;;;5052082;28;20039;-79
2021/03/11 08:02:00;;;;;;;37.28;6.30;;;12.00;66.90;;;;;;5052894;28;20029;-84
2021/03/11 08:04:28;;;;;;;47.15;8.73;;;12.00;67.10;;;;;;5051958;28;20025;-87
2021/03/11 08:07:22;;;;;;;35.08;6.18;;;12.00;66.70;;;;;;5035570;28;20425;-79
2021/03/11 08:09:49;;;;;;;40.38;8.05;;;11.90;67.10;;;;;;5053011;28;20123;-79
2021/03/11 08:12:24;;;;;;;41.28;8.77;;;11.90;67.50;;;;;;5053062;28;20025;-78
2021/03/11 08:14:49;;;;;;;35.40;6.53;;;11.90;67.00;;;;;;5052747;28;20486;-78
2021/03/11 08:17:33;;;;;;;35.33;7.90;;;11.90;66.50;;;;;;5053169;28;20072;-78
2021/03/11 08:20:00;;;;;;;27.60;4.78;;;11.90;66.00;;;;;;5053091;28;20386;-82
2021/03/11 08:22:55;;;;;;;30.02;5.72;;;11.90;65.40;;;;;;5058823;28;20442;-95
2021/03/11 08:25:41;;;;;;;32.97;6.25;;;12.00;65.20;;;;;;5053388;28;20021;-84
2021/03/11 08:28:09;;;;;;;32.13;5.65;;;12.00;64.30;;;;;;5052429;28;20087;-81
2021/03/11 08:30:38;;;;;;;32.13;7.10;;;12.00;65.00;;;;;;5056397;28;20057;-80
2021/03/11 08:33:10;;;;;;;35.65;8.55;;;12.00;65.10;;;;;;5056670;28;20043;-79
2021/03/11 08:35:37;;;;;;;32.25;5.95;;;12.00;64.90;;;;;;5055485;28;20025;-79
2021/03/11 08:38:22;;;;;;;44.03;6.45;;;12.10;65.00;;;;;;5056564;28;20021;-79
2021/03/11 08:41:08;;;;;;;37.85;7.43;;;12.10;65.00;;;;;;5048180;28;20044;-79
2021/03/11 08:43:37;;;;;;;29.90;6.05;;;12.10;65.50;;;;;;5056521;28;20021;-80
2021/03/11 08:46:22;;;;;;;32.70;5.53;;;12.10;65.40;;;;;;5056514;28;20401;-79
2021/03/11 08:48:51;;;;;;;43.25;6.82;;;12.10;64.80;;;;;;5056122;28;20052;-79
2021/03/11 08:51:22;;;;;;;23.23;5.00;;;12.20;65.10;;;;;;5056628;28;20036;-79
2021/03/11 08:53:51;;;;;;;37.10;6.38;;;12.30;63.70;;;;;;5056248;28;20029;-80
2021/03/11 08:56:16;;;;;;;27.23;5.78;;;12.30;63.90;;;;;;5056184;28;20470;-80
2021/03/11 08:58:54;;;;;;;28.60;5.85;;;12.40;63.00;;;;;;5056228;28;20083;-80
2021/03/11 09:01:31;;;;;;;26.15;5.40;;;12.40;63.30;;;;;;5056318;28;20031;-80
2021/03/11 09:03:57;;;;;;;36.15;7.43;;;12.30;62.00;;;;;;5056380;28;20100;-80
2021/03/11 09:07:01;;;;;;;36.10;5.20;;;12.30;62.80;;;;;;5056159;28;20021;-81
2021/03/11 09:09:32;;;;;;;39.22;8.98;;;12.30;62.90;;;;;;5055916;28;20037;-80
2021/03/11 09:11:57;;;;;;;;;;;12.40;62.50;;;;;;5056222;28;20106;-80
2021/03/11 09:14:23;;;;;;;39.95;6.93;;;12.40;62.30;;;;;;5054779;28;20003;-80
2021/03/11 09:16:49;;;;;;;30.13;6.40;;;12.40;62.40;;;;;;5037776;28;20070;-80
2021/03/11 09:19:15;;;;;;;35.65;6.68;;;12.50;61.70;;;;;;5055909;28;20100;-80
2021/03/11 09:21:41;;;;;;;34.33;6.55;;;12.50;60.50;;;;;;5071251;28;20478;-80
2021/03/11 09:24:18;;;;;;;44.65;8.52;;;12.50;61.00;;;;;;5059929;28;20032;-79
2021/03/11 09:26:43;;;;;;;39.72;7.07;;;12.50;60.60;;;;;;5055739;28;20025;-80
2021/03/11 09:29:10;;;;;;;54.15;8.57;;;12.60;60.10;;;;;;5037864;28;20039;-80
2021/03/11 09:31:37;;;;;;;30.70;5.97;;;12.70;60.40;;;;;;5037690;28;20037;-79
2021/03/11 09:34:03;;;;;;;28.63;6.38;;;12.70;59.60;;;;;;5055500;28;20033;-80
2021/03/11 09:36:28;;;;;;;31.33;5.95;;;12.70;59.50;;;;;;5055476;28;20073;-80
2021/03/11 09:39:07;;;;;;;24.90;4.95;;;12.80;59.30;;;;;;5055324;28;20437;-80
2021/03/11 09:41:33;;;;;;;18.00;3.97;;;12.80;58.70;;;;;;5053011;28;20060;-80
2021/03/11 09:44:03;;;;;;;19.65;4.22;;;12.80;58.10;;;;;;5054185;28;20083;-78
2021/03/11 09:46:28;;;;;;;36.10;6.28;;;12.80;58.10;;;;;;5037477;28;20374;-78
2021/03/11 09:48:55;;;;;;;18.70;4.30;;;13.10;58.10;;;;;;5054932;28;20029;-79
2021/03/11 09:51:21;;;;;;;24.67;5.00;;;13.00;58.00;;;;;;5054199;28;20029;-80
2021/03/11 09:53:51;;;;;;;24.27;4.70;;;13.00;57.30;;;;;;5055086;28;20039;-79
2021/03/11 09:56:27;;;;;;;27.48;4.57;;;12.90;57.30;;;;;;5053931;28;20082;-78
2021/03/11 09:59:07;;;;;;;21.23;4.28;;;12.90;57.10;;;;;;5053446;28;20431;-79
2021/03/11 10:01:52;;;;;;;28.35;5.82;;;12.80;56.90;;;;;;5054357;28;20039;-90
2021/03/11 10:29:06;;;;;;;19.77;4.45;;;12.60;57.70;;;;;;5111720;27;20319;-83
2021/03/11 10:31:32;;;;;;;18.92;4.10;;;12.60;58.20;;;;;;5110312;28;20427;-83
2021/03/11 10:34:16;;;;;;;28.90;4.90;;;12.70;57.30;;;;;;5111374;28;20024;-84
2021/03/11 10:39:09;;;;;;;30.45;4.85;;;12.60;57.20;;;;;;5066732;27;1462360;-83
2021/03/11 10:41:36;;;;;;;22.33;3.88;;;12.70;58.10;;;;;;5091188;28;20036;-84
2021/03/11 10:44:13;;;;;;;29.23;4.70;;;12.60;57.90;;;;;;5072877;28;20107;-84
2021/03/11 10:46:39;;;;;;;21.23;3.60;;;12.60;57.80;;;;;;5073135;28;20031;-83
2021/03/11 10:49:05;;;;;;;17.50;3.83;;;12.60;58.30;;;;;;5073432;28;20031;-84
2021/03/11 10:51:32;;;;;;;22.00;4.72;;;12.50;58.70;;;;;;5091245;28;20093;-83
2021/03/11 10:54:01;;;;;;;17.55;4.53;;;12.60;58.90;;;;;;5091087;28;20079;-84
2021/03/11 10:56:27;;;;;;;21.63;4.30;;;12.60;59.40;;;;;;5073184;28;20024;-83
2021/03/11 10:59:00;;;;;;;22.55;4.65;;;12.50;59.10;;;;;;5091042;28;20043;-83
2021/03/11 11:01:28;;;;;;;15.95;4.10;;;12.60;59.30;;;;;;5072435;28;20066;-83
2021/03/11 11:03:54;;;;;;;19.52;4.00;;;12.60;59.50;;;;;;5090751;28;20020;-83
2021/03/11 11:06:23;;;;;;;29.58;5.10;;;12.70;59.80;;;;;;5090710;28;20020;-84
2021/03/11 11:08:49;;;;;;;28.67;5.75;;;12.70;60.00;;;;;;5078555;28;20536;-83
